Time;durP1;ratioP1;P1;durP2;ratioP2;P2;SDS_P1;SDS_P2;PMS_P1;PMS_P2;Temp;Humidity;BMP_temperature;BMP_pressure;BME280_temperature;BME280_humidity;BME280_pressure;Samples;Min_cycle;Max_cycle;Signal;HPM_P1;HPM_P2
2022/11/18 13:48:34;;;;;;;7.20;2.58;;;;;;;8.88;87.49;96720.63;6149903;23;20052;-64
2022/11/18 13:51:00;;;;;;;6.28;1.90;;;;;;;8.85;87.05;96716.50;6109423;23;20455;-65
2022/11/18 13:53:29;;;;;;;7.53;1.70;;;;;;;10.79;95.58;96729.00;6184441;23;20008;-62
2022/11/18 13:56:02;;;;;;;6.72;2.00;;;;;;;13.12;77.78;96711.53;6134598;23;20016;-64
2022/11/18 13:58:31;;;;;;;4.82;2.00;;;;;;;14.33;68.13;96712.84;6158634;23;20055;-63
2022/11/18 14:01:02;;;;;;;4.50;1.60;;;;;;;13.24;67.11;96712.91;6157998;23;20438;-64
2022/11/18 14:03:43;;;;;;;4.65;1.48;;;;;;;12.14;70.98;96721.38;6156877;23;20001;-65
2022/11/18 14:06:08;;;;;;;7.35;2.10;;;;;;;11.54;72.55;96720.09;6158224;23;20009;-64
2022/11/18 14:08:35;;;;;;;9.75;2.15;;;;;;;11.02;74.69;96724.22;6158781;23;20449;-67
2022/11/18 14:11:00;;;;;;;6.13;2.00;;;;;;;10.49;77.11;96722.97;6134122;23;19997;-66
2022/11/18 14:13:34;;;;;;;4.20;1.55;;;;;;;10.25;78.78;96730.41;6133452;23;20000;-65
2022/11/18 14:16:23;;;;;;;6.30;2.70;;;;;;;10.00;80.31;96722.16;6158666;23;20009;-64
2022/11/18 14:18:50;;;;;;;6.05;2.33;;;;;;;9.75;81.17;96729.59;6161861;23;20005;-66
2022/11/18 14:21:25;;;;;;;5.10;1.92;;;;;;;9.63;81.49;96738.50;6158645;23;20004;-66
2022/11/18 14:23:51;;;;;;;4.13;1.60;;;;;;;9.43;82.39;96736.84;6133520;23;20071;-65
2022/11/18 14:26:40;;;;;;;3.28;1.60;;;;;;;9.37;82.88;96739.97;6184494;23;20011;-65
2022/11/18 14:29:19;;;;;;;4.43;1.73;;;;;;;9.16;84.09;96740.88;6137193;23;20008;-65
2022/11/18 14:32:09;;;;;;;4.18;1.88;;;;;;;9.04;84.74;96745.34;6135108;23;20514;-65
2022/11/18 14:34:35;;;;;;;5.30;1.80;;;;;;;8.99;85.11;96749.34;6159794;23;20008;-66
2022/11/18 14:37:00;;;;;;;4.90;1.98;;;;;;;8.85;85.55;96744.44;6133610;23;20005;-65
2022/11/18 14:39:29;;;;;;;12.20;6.22;;;;;;;8.76;85.56;96752.09;6133444;23;20342;-65
2022/11/18 14:41:55;;;;;;;44.20;20.45;;;;;;;8.76;86.18;96752.09;6133741;23;20021;-65
2022/11/18 14:44:21;;;;;;;30.48;15.98;;;;;;;8.80;86.06;96761.34;6157755;23;20064;-66
2022/11/18 14:47:02;;;;;;;17.08;8.75;;;;;;;8.71;86.94;96759.50;6158105;23;20012;-65
2022/11/18 14:49:30;;;;;;;10.40;7.43;;;;;;;8.67;87.19;96762.50;6157265;23;20009;-66
2022/11/18 14:51:55;;;;;;;8.43;4.53;;;;;;;8.59;87.21;96763.13;6184141;23;20000;-66
2022/11/18 14:54:23;;;;;;;7.57;4.45;;;;;;;8.56;87.69;96758.16;6158058;23;20084;-65
2022/11/18 14:56:49;;;;;;;7.43;4.78;;;;;;;8.56;87.40;96763.38;6109665;23;20001;-65
2022/11/18 14:59:15;;;;;;;5.88;3.22;;;;;;;8.56;87.69;96768.63;6133509;23;20335;-66
2022/11/18 15:01:41;;;;;;;6.68;2.75;;;;;;;8.53;87.45;96769.72;6133509;23;20054;-66
2022/11/18 15:04:07;;;;;;;5.63;2.50;;;;;;;8.49;87.60;96765.69;6157352;23;20395;-65
2022/11/18 15:06:32;;;;;;;11.88;7.22;;;;;;;8.41;88.25;96767.28;6157922;23;20004;-65
2022/11/18 15:08:58;;;;;;;10.52;5.03;;;;;;;8.39;88.08;96769.19;6133562;23;20001;-64
2022/11/18 15:11:23;;;;;;;16.05;10.45;;;;;;;8.29;88.13;96775.16;6184066;23;20001;-65
2022/11/18 15:13:48;;;;;;;19.13;12.20;;;;;;;8.25;89.00;96776.34;6183846;23;20011;-64
2022/11/18 15:16:21;;;;;;;11.90;6.93;;;;;;;8.23;89.23;96780.06;6184147;23;20072;-66
2022/11/18 15:18:48;;;;;;;16.83;11.13;;;;;;;8.23;89.08;96780.88;6133892;23;20465;-65
2022/11/18 15:21:13;;;;;;;7.50;3.70;;;;;;;8.19;89.35;96789.06;6157853;23;20001;-63
2022/11/18 15:23:39;;;;;;;7.72;3.97;;;;;;;8.18;89.61;96788.25;6157415;23;19997;-64
2022/11/18 15:26:27;;;;;;;8.07;4.70;;;;;;;8.16;89.01;96792.78;6157563;23;20009;-63
2022/11/18 15:28:53;;;;;;;6.75;3.08;;;;;;;8.17;89.78;96802.25;6183897;23;20462;-63
2022/11/18 15:31:19;;;;;;;8.23;3.95;;;;;;;8.19;89.57;96797.75;6184091;23;20004;-65
2022/11/18 15:33:44;;;;;;;11.27;5.40;;;;;;;8.17;89.38;96802.25;6183466;23;20025;-65
2022/11/18 15:36:14;;;;;;;10.50;6.18;;;;;;;8.16;89.52;96795.38;6131608;23;20005;-65
2022/11/18 15:38:40;;;;;;;8.85;4.63;;;;;;;8.14;89.67;96807.72;6157755;23;20004;-65
2022/11/18 15:41:06;;;;;;;10.25;4.00;;;;;;;8.10;90.02;96806.31;6133464;23;19997;-65
2022/11/18 15:43:31;;;;;;;8.10;3.78;;;;;;;8.07;89.66;96806.56;6157501;23;20000;-65
2022/11/18 15:45:57;;;;;;;11.80;6.03;;;;;;;8.08;89.81;96809.03;6157752;23;20005;-64
2022/11/18 15:48:22;;;;;;;13.88;5.75;;;;;;;8.08;90.75;96813.44;6157819;23;20008;-65
2022/11/18 15:50:48;;;;;;;8.40;3.85;;;;;;;8.06;90.53;96810.13;6183497;23;20338;-65
2022/11/18 15:53:13;;;;;;;16.02;7.95;;;;;;;8.02;91.33;96809.56;6183479;23;20001;-64
2022/11/18 15:55:39;;;;;;;34.33;17.25;;;;;;;8.02;91.34;96813.97;6184060;23;20033;-65
2022/11/18 15:58:04;;;;;;;15.07;8.05;;;;;;;8.03;91.38;96816.44;6183857;23;20001;-65
2022/11/18 16:00:29;;;;;;;10.13;5.53;;;;;;;8.00;90.68;96819.28;6184257;23;20001;-65
2022/11/18 16:02:55;;;;;;;16.30;9.00;;;;;;;8.00;90.75;96816.66;6132881;23;20001;-65
2022/11/18 16:05:20;;;;;;;15.10;7.43;;;;;;;7.97;91.47;96822.13;6183357;23;20005;-64
2022/11/18 16:07:46;;;;;;;16.58;7.43;;;;;;;7.99;91.60;96814.19;6157480;23;20005;-65
2022/11/18 16:12:56;;;;;;;17.35;6.68;;;;;;;8.00;91.55;96821.91;6183276;23;20011;-64
2022/11/18 16:18:05;;;;;;;10.88;4.90;;;;;;;7.98;91.70;96829.03;6183806;23;20015;-64
2022/11/18 16:20:30;;;;;;;9.48;5.00;;;;;;;7.96;91.90;96833.53;6183565;23;20005;-65
2022/11/18 16:22:56;;;;;;;9.15;4.93;;;;;;;8.00;91.64;96831.50;6184656;23;19996;-64
2022/11/18 16:25:22;;;;;;;9.95;5.38;;;;;;;8.02;91.24;96835.66;6185717;23;20008;-65
2022/11/18 16:27:47;;;;;;;10.50;4.85;;;;;;;8.03;91.58;96836.50;6159544;23;20374;-64
2022/11/18 16:32:57;;;;;;;12.18;6.20;;;;;;;8.07;91.71;96837.91;6184682;23;20339;-65
2022/11/18 16:35:22;;;;;;;11.43;5.72;;;;;;;8.08;91.61;96843.00;6158556;23;20001;-64
2022/11/18 16:37:48;;;;;;;17.60;8.95;;;;;;;8.09;91.61;96846.47;6185480;23;20008;-65
2022/11/18 16:40:13;;;;;;;13.80;8.00;;;;;;;8.12;91.03;96846.22;6185526;23;20001;-64
2022/11/18 16:42:38;;;;;;;24.35;11.93;;;;;;;8.13;91.46;96847.03;6185983;23;20419;-64
2022/11/18 16:45:04;;;;;;;76.03;34.75;;;;;;;8.14;91.76;96848.69;6185273;23;20011;-64
2022/11/18 16:47:30;;;;;;;386.98;132.93;;;;;;;8.15;91.57;96856.38;6159117;23;20013;-66
2022/11/18 16:49:55;;;;;;;342.30;111.30;;;;;;;8.12;90.93;96861.03;6184872;23;20059;-66
2022/11/18 16:52:21;;;;;;;235.35;74.32;;;;;;;8.13;90.97;96853.09;6185186;23;20004;-66
2022/11/18 16:54:46;;;;;;;210.65;67.88;;;;;;;8.12;90.99;96856.66;6183956;23;20439;-65
2022/11/18 16:57:11;;;;;;;143.85;58.45;;;;;;;8.12;91.51;96863.63;6183630;23;20013;-65
2022/11/18 16:59:37;;;;;;;25.15;14.88;;;;;;;8.08;91.53;96871.72;6156174;23;20020;-66
2022/11/18 17:02:02;;;;;;;19.33;11.50;;;;;;;8.11;92.24;96870.66;6185662;23;19997;-66
2022/11/18 17:04:28;;;;;;;13.75;8.32;;;;;;;8.09;91.86;96862.13;6184632;23;20335;-66
2022/11/18 17:06:54;;;;;;;17.40;10.88;;;;;;;8.09;91.22;96868.16;6185342;23;20001;-66
2022/11/18 17:09:20;;;;;;;15.90;10.45;;;;;;;8.05;91.59;96865.91;6185333;23;20476;-66
2022/11/18 17:11:46;;;;;;;29.88;12.43;;;;;;;8.06;91.59;96867.59;6133309;23;19994;-66
2022/11/18 17:14:11;;;;;;;43.03;19.33;;;;;;;8.06;91.89;96867.59;6182884;23;20016;-66
2022/11/18 17:16:37;;;;;;;36.22;14.40;;;;;;;8.04;91.83;96869.47;6158427;23;20005;-65
2022/11/18 17:19:03;;;;;;;17.42;9.85;;;;;;;8.04;91.05;96864.25;6157103;23;20471;-65
2022/11/18 17:21:28;;;;;;;19.98;10.77;;;;;;;8.02;91.96;96863.56;6158093;23;20084;-65
2022/11/18 17:23:53;;;;;;;14.52;9.00;;;;;;;7.97;91.59;96871.75;6183890;23;20005;-66
2022/11/18 17:26:24;;;;;;;14.60;9.70;;;;;;;8.00;91.92;96873.28;6132051;23;20005;-66
2022/11/18 17:28:49;;;;;;;11.98;7.38;;;;;;;7.98;91.70;96875.19;6159421;23;20080;-65
2022/11/18 17:31:19;;;;;;;9.73;5.55;;;;;;;7.98;92.36;96869.97;6185080;23;20358;-65
2022/11/18 17:33:44;;;;;;;12.35;6.72;;;;;;;7.99;92.24;96871.63;6158459;23;20052;-66
2022/11/18 17:36:14;;;;;;;11.75;6.78;;;;;;;7.97;92.77;96876.97;6158865;23;20001;-65
2022/11/18 17:38:41;;;;;;;15.57;8.50;;;;;;;7.99;92.69;96876.88;6159007;23;20005;-65
2022/11/18 17:41:07;;;;;;;12.60;6.95;;;;;;;8.00;92.73;96878.50;6184941;23;20011;-64
2022/11/18 17:43:33;;;;;;;21.20;9.90;;;;;;;7.97;93.60;96873.53;6133487;23;20342;-66
2022/11/18 17:45:59;;;;;;;20.35;10.25;;;;;;;7.95;93.16;96880.66;6159063;23;20028;-65
2022/11/18 17:48:25;;;;;;;26.30;12.25;;;;;;;7.94;93.63;96886.81;6158539;23;20664;-64
2022/11/18 17:50:50;;;;;;;26.58;15.05;;;;;;;7.92;93.52;96888.75;6134050;23;20005;-65
2022/11/18 17:53:16;;;;;;;37.67;20.35;;;;;;;7.91;92.88;96890.50;6184492;23;20423;-65
2022/11/18 17:55:41;;;;;;;38.90;20.08;;;;;;;7.88;93.89;96901.22;6158276;23;20299;-65
2022/11/18 17:58:07;;;;;;;18.17;9.95;;;;;;;7.83;93.30;96896.31;6184091;23;20066;-65
2022/11/18 18:00:33;;;;;;;29.15;14.48;;;;;;;7.86;93.53;96897.88;6184729;23;20089;-65
2022/11/18 18:02:58;;;;;;;25.38;13.10;;;;;;;7.83;92.88;96904.16;6184584;23;20035;-65
2022/11/18 18:05:25;;;;;;;16.05;8.82;;;;;;;7.87;93.41;96906.53;6158863;23;20025;-64
2022/11/18 18:07:51;;;;;;;12.57;7.50;;;;;;;7.80;93.11;96904.41;6158807;23;19997;-64
2022/11/18 18:10:17;;;;;;;12.55;7.13;;;;;;;7.74;93.84;96899.69;6184581;23;20005;-64
2022/11/18 18:15:26;;;;;;;13.20;6.60;;;;;;;7.77;93.52;96919.47;6184635;23;20012;-64
2022/11/18 18:17:51;;;;;;;12.70;6.32;;;;;;;7.77;92.67;96915.06;6184160;23;20005;-64
2022/11/18 18:20:17;;;;;;;14.05;5.97;;;;;;;7.77;93.36;96906.41;6184366;23;20005;-64
2022/11/18 18:22:42;;;;;;;12.70;6.03;;;;;;;7.74;92.34;96904.91;6158393;23;20387;-66
2022/11/18 18:25:08;;;;;;;12.38;6.28;;;;;;;7.72;93.37;96912.00;6184081;23;20046;-66
2022/11/18 18:27:33;;;;;;;11.23;6.60;;;;;;;7.75;93.26;96919.59;6184695;23;20001;-66
2022/11/18 18:29:59;;;;;;;12.30;5.40;;;;;;;7.77;93.21;96932.50;6158181;23;20414;-65
2022/11/18 18:32:24;;;;;;;14.73;5.90;;;;;;;7.78;92.79;96928.97;6183891;23;20331;-66
2022/11/18 18:34:49;;;;;;;18.55;11.65;;;;;;;7.74;92.64;96925.78;6182843;23;20004;-65
2022/11/18 18:37:15;;;;;;;10.30;6.00;;;;;;;7.70;92.10;96924.31;6182163;23;20012;-65
2022/11/18 18:39:40;;;;;;;9.55;4.45;;;;;;;7.69;92.50;96930.50;6156022;23;20011;-65
2022/11/18 18:42:05;;;;;;;9.38;4.35;;;;;;;7.66;92.36;96933.34;6184312;23;20334;-66
2022/11/18 18:47:15;;;;;;;8.98;4.82;;;;;;;7.60;92.13;96933.81;6183401;23;20135;-66
2022/11/18 18:49:40;;;;;;;12.30;6.53;;;;;;;7.54;92.38;96936.91;6183853;23;20439;-66
2022/11/18 18:52:05;;;;;;;10.25;4.35;;;;;;;7.54;92.20;96935.13;6183026;23;20001;-66
2022/11/18 18:54:31;;;;;;;13.60;7.57;;;;;;;7.52;92.25;96941.41;6183436;23;20001;-66
2022/11/18 18:56:56;;;;;;;12.15;6.43;;;;;;;7.54;91.93;96948.19;6183556;23;20493;-66
2022/11/18 18:59:22;;;;;;;22.20;12.73;;;;;;;7.51;92.24;96952.78;6184153;23;20042;-66
2022/11/18 19:01:47;;;;;;;26.02;13.38;;;;;;;7.48;92.16;96955.63;6183229;23;20012;-66
2022/11/18 19:04:12;;;;;;;26.55;11.80;;;;;;;7.49;91.34;96952.06;6183264;23;20419;-67
2022/11/18 19:06:38;;;;;;;53.47;21.92;;;;;;;7.41;91.18;96949.22;6132443;23;20100;-66
2022/11/18 19:09:04;;;;;;;44.33;20.70;;;;;;;7.43;90.78;96960.34;6133185;23;20431;-66
2022/11/18 19:14:15;;;;;;;31.27;12.27;;;;;;;7.27;89.75;96961.53;6183954;23;20069;-66
2022/11/18 19:16:41;;;;;;;41.70;17.95;;;;;;;7.23;90.21;96956.66;6132679;23;20036;-66
2022/11/18 19:19:06;;;;;;;40.15;18.38;;;;;;;7.19;90.75;96966.50;6156613;23;20001;-65
2022/11/18 19:21:33;;;;;;;41.35;18.02;;;;;;;7.16;91.21;96964.09;6132601;23;20001;-66
2022/11/18 19:23:59;;;;;;;42.20;18.27;;;;;;;7.13;91.30;96964.34;6157625;23;20056;-66
2022/11/18 19:26:24;;;;;;;29.02;11.70;;;;;;;7.19;91.16;96963.88;6157921;23;20004;-66
2022/11/18 19:28:50;;;;;;;50.78;22.15;;;;;;;7.14;90.90;96969.41;6183266;23;20011;-66
2022/11/18 19:31:17;;;;;;;33.40;14.25;;;;;;;7.15;91.32;96975.47;6184037;23;20008;-66
2022/11/18 19:33:43;;;;;;;31.00;12.98;;;;;;;7.11;90.94;96979.25;6155536;23;20008;-67
2022/11/18 19:36:08;;;;;;;20.27;9.02;;;;;;;7.13;91.85;96985.19;6183253;23;20055;-66
2022/11/18 19:38:34;;;;;;;13.93;6.38;;;;;;;7.14;91.52;96984.25;6157723;23;20059;-66
2022/11/18 19:41:07;;;;;;;16.88;7.22;;;;;;;7.18;91.72;96987.44;6183422;23;20061;-66
2022/11/18 19:43:32;;;;;;;33.97;13.77;;;;;;;7.15;91.61;96983.28;6183364;23;20478;-66
2022/11/18 19:45:57;;;;;;;29.10;12.30;;;;;;;7.15;91.04;96983.28;6183749;23;20008;-66
2022/11/18 19:48:23;;;;;;;33.45;13.05;;;;;;;7.18;91.40;96990.88;6182383;23;20051;-66
2022/11/18 19:50:49;;;;;;;20.13;7.80;;;;;;;7.20;90.98;96988.19;6133083;23;20001;-66
2022/11/18 19:53:33;;;;;;;60.85;22.77;;;;;;;7.21;90.76;96988.06;6132192;23;20012;-67
2022/11/18 19:55:59;;;;;;;25.83;11.82;;;;;;;7.18;91.06;96993.50;6183606;23;20059;-66
2022/11/18 19:58:25;;;;;;;17.17;8.25;;;;;;;7.21;91.44;96982.00;6158889;23;20506;-66
2022/11/18 20:00:50;;;;;;;18.80;8.75;;;;;;;7.20;91.36;96988.19;6184401;23;20015;-68
2022/11/18 20:03:15;;;;;;;13.57;6.57;;;;;;;7.20;91.26;96989.00;6184719;23;20001;-66
2022/11/18 20:05:53;;;;;;;12.50;5.95;;;;;;;7.21;91.08;96990.66;6134881;23;20016;-66
2022/11/18 20:08:19;;;;;;;11.05;4.70;;;;;;;7.20;92.09;96993.41;6185781;23;20477;-66
2022/11/18 20:10:45;;;;;;;13.82;6.63;;;;;;;7.21;92.88;96998.47;6134673;23;20576;-66
2022/11/18 20:13:10;;;;;;;9.00;4.10;;;;;;;7.23;92.46;96999.22;6159229;23;20004;-66
2022/11/18 20:15:35;;;;;;;16.50;6.45;;;;;;;7.20;92.22;96998.63;6185211;23;20005;-66
2022/11/18 20:18:01;;;;;;;32.92;11.48;;;;;;;7.21;92.21;97011.53;6185321;23;20005;-66
2022/11/18 20:20:27;;;;;;;22.50;7.90;;;;;;;7.21;92.88;97002.88;6134959;23;20365;-66
2022/11/18 20:22:52;;;;;;;65.05;21.55;;;;;;;7.22;92.84;97007.97;6134840;23;20386;-67
2022/11/18 20:25:18;;;;;;;33.42;11.93;;;;;;;7.23;92.89;97008.81;6185105;23;20001;-66
2022/11/18 20:27:43;;;;;;;15.45;8.27;;;;;;;7.31;95.14;97020.34;6185109;23;20084;-67
2022/11/18 20:30:09;;;;;;;11.85;4.70;;;;;;;7.29;93.61;97014.38;6159072;23;20005;-67
2022/11/18 20:32:34;;;;;;;12.50;5.50;;;;;;;7.28;92.88;97017.13;6158144;23;20004;-67
2022/11/18 20:35:00;;;;;;;14.30;5.78;;;;;;;7.26;92.47;97009.44;6185418;23;20001;-66
2022/11/18 20:37:25;;;;;;;10.82;5.78;;;;;;;7.25;92.35;97018.16;6185691;23;20011;-66
2022/11/18 20:39:51;;;;;;;14.38;7.03;;;;;;;7.19;93.18;97017.78;6185186;23;20005;-66
2022/11/18 20:45:00;;;;;;;15.30;6.38;;;;;;;7.15;93.48;97027.63;6184359;23;20054;-66
2022/11/18 20:47:25;;;;;;;12.50;5.28;;;;;;;7.16;94.10;97023.22;6159365;23;20005;-66
2022/11/18 20:49:51;;;;;;;14.85;6.82;;;;;;;7.14;93.54;97015.53;6184528;23;20422;-65
2022/11/18 20:52:16;;;;;;;9.35;4.93;;;;;;;7.16;94.16;97026.69;6158313;23;20005;-65
2022/11/18 20:54:44;;;;;;;10.77;4.75;;;;;;;7.17;94.89;97024.91;6134202;23;20374;-65
2022/11/18 20:57:09;;;;;;;13.18;5.93;;;;;;;7.19;94.10;97026.47;6158624;23;20005;-66
2022/11/18 20:59:35;;;;;;;8.82;4.68;;;;;;;7.16;93.22;97034.50;6184986;23;20080;-66
2022/11/18 21:02:00;;;;;;;13.77;7.53;;;;;;;7.14;92.60;97049.44;6157682;23;20001;-65
2022/11/18 21:04:26;;;;;;;16.55;8.80;;;;;;;7.06;92.94;97043.94;6158225;23;20342;-65
2022/11/18 21:06:57;;;;;;;12.00;5.50;;;;;;;6.91;92.66;97040.66;6184129;23;20080;-65
2022/11/18 21:09:23;;;;;;;10.88;6.00;;;;;;;6.85;92.61;97044.56;6184244;23;20016;-65
2022/11/18 21:11:48;;;;;;;10.27;5.95;;;;;;;6.85;92.70;97054.16;6184992;23;20005;-66
2022/11/18 21:14:16;;;;;;;17.85;10.15;;;;;;;6.78;92.36;97061.59;6157978;23;20001;-66
2022/11/18 21:16:42;;;;;;;15.48;8.02;;;;;;;6.74;91.78;97064.50;6184474;23;19997;-66
2022/11/18 21:19:08;;;;;;;16.40;8.60;;;;;;;6.72;92.37;97062.00;6158986;23;20008;-66
2022/11/18 21:21:47;;;;;;;19.08;11.45;;;;;;;6.73;90.85;97071.47;6158800;23;20001;-66
2022/11/18 21:24:23;;;;;;;18.10;9.80;;;;;;;6.69;90.99;97077.88;6184767;23;20005;-65
2022/11/18 21:26:49;;;;;;;11.95;6.03;;;;;;;6.68;90.53;97091.00;6135355;23;20013;-66
2022/11/18 21:29:15;;;;;;;13.48;7.18;;;;;;;6.65;90.63;97092.06;6157974;23;20032;-65
2022/11/18 21:31:41;;;;;;;14.68;7.65;;;;;;;6.66;90.13;97099.75;6133968;23;20001;-66
2022/11/18 21:34:06;;;;;;;15.20;8.85;;;;;;;6.66;90.18;97104.13;6184430;23;20005;-66
2022/11/18 21:36:32;;;;;;;20.75;11.68;;;;;;;6.65;89.97;97102.47;6184418;23;20009;-65
2022/11/18 21:38:58;;;;;;;17.75;10.48;;;;;;;6.63;89.93;97104.34;6158529;23;20343;-65
2022/11/18 21:41:24;;;;;;;10.70;4.93;;;;;;;6.54;90.10;97112.81;6134355;23;20032;-65
2022/11/18 21:43:50;;;;;;;9.63;4.15;;;;;;;6.42;89.22;97112.72;6157627;23;20012;-65
2022/11/18 21:46:16;;;;;;;7.70;3.05;;;;;;;6.40;90.43;97117.22;6184747;23;20012;-65
2022/11/18 21:48:41;;;;;;;18.13;12.85;;;;;;;6.38;90.23;97113.88;6184631;23;20001;-66
2022/11/18 21:51:08;;;;;;;15.55;9.65;;;;;;;6.39;90.39;97105.09;6184499;23;20028;-66
2022/11/18 21:53:34;;;;;;;9.68;5.10;;;;;;;6.41;90.84;97107.63;6133094;23;20001;-65
2022/11/18 21:56:03;;;;;;;16.38;7.40;;;;;;;6.44;90.58;97111.78;6184789;23;20005;-65
2022/11/18 21:58:28;;;;;;;11.95;5.72;;;;;;;6.45;89.93;97116.06;6132564;23;20803;-65
2022/11/18 22:00:58;;;;;;;8.43;3.85;;;;;;;6.37;88.63;97120.03;6134011;23;20005;-66
2022/11/18 22:03:23;;;;;;;11.20;5.63;;;;;;;6.37;89.79;97117.41;6157486;23;20009;-65
2022/11/18 22:05:49;;;;;;;13.32;5.88;;;;;;;6.41;90.58;97128.47;6156913;23;20321;-64
2022/11/18 22:08:14;;;;;;;10.23;4.43;;;;;;;6.41;90.29;97129.28;6133275;23;20008;-65
2022/11/18 22:10:44;;;;;;;9.38;3.88;;;;;;;6.53;92.60;97124.16;6182610;23;20001;-64
2022/11/18 22:13:09;;;;;;;10.52;4.03;;;;;;;6.76;95.16;97125.16;6129493;23;20446;-65
2022/11/18 22:15:35;;;;;;;9.63;4.13;;;;;;;7.00;96.09;97122.59;6183402;23;20028;-65
2022/11/18 22:18:00;;;;;;;11.25;4.30;;;;;;;7.20;96.72;97127.22;6183104;23;20031;-65
2022/11/18 22:20:25;;;;;;;11.73;5.03;;;;;;;7.40;97.97;97127.53;6183355;23;20011;-65
2022/11/18 22:22:51;;;;;;;12.57;5.75;;;;;;;7.52;96.77;97131.88;6183453;23;20500;-66
2022/11/18 22:25:16;;;;;;;13.43;5.28;;;;;;;7.68;96.39;97134.22;6183330;23;20011;-65
2022/11/18 22:27:41;;;;;;;9.88;4.55;;;;;;;7.78;96.91;97128.19;6183279;23;20009;-65
2022/11/18 22:30:07;;;;;;;10.90;5.55;;;;;;;7.84;95.02;97126.88;6183109;23;20005;-65
2022/11/18 22:32:33;;;;;;;9.75;4.20;;;;;;;7.89;94.30;97131.78;6184041;23;20001;-65
2022/11/18 22:34:58;;;;;;;9.02;3.55;;;;;;;7.94;93.41;97133.06;6156405;23;20009;-65
